Huvudsida
METAR-TAF:

METAR-TAF

Flygplatser :

Norrköping, Sverige

Norrköping flygplats

latitud: 58-35N, longitud: 016-09E, höjd: 34 m

Aktuellt väderrapport

Denna rapport gjordes för 34 minuter sedan, klockan 10:20 UTC
Vind 10 kt från ost
Temperatur 0°C
Fuktighet 100%
Tryck 986 hPa
Sikt: 2800 m
Mulet på en höjd av 500 ft
lätt snö

METAR: ESSP 171020Z 10010KT 2800 -SN OVC005 00/00 Q0986 R09/290095

Tid: 11:54 (10:54 UTC)

Väderprognos

Denna rapport gjordes för 2 timmar och 24 minuter sedan, klockan 08:30 UTC
Prognos gäller från 17 kl. 09 UTC till 17 kl. 18 UTC
Vind 9 kt från ost/sydost
Sikt: 5000 m
Spridda moln på en höjd av 700 ft
Mulet på en höjd av 1000 ft
lätt snö
Temporärt
från 17 kl. 09 UTC till 17 kl. 18 UTC
Sikt: 1200 m
Mulet på en höjd av 400 ft
snö

TAF: ESSP 170830Z 1709/1718 11009KT 5000 -SN SCT007 OVC010 TEMPO 1709/1718 1200 SN OVC004

Aktuella väderrapporter och prognoser från 4000 flygplatser (METAR- och TAF-rapporter).

De tillgängliga stationerna syns som gula och röda prickar på kartan.

För musen över prickarna för att se namnen på stationerna.

Klicka sedan för att få väderrapporter och prognoser.

För att ändra kartan: Klicka på de gröna knapparna med ett svart kors på för att zooma in; den gröna knappen med ett streck på för att zooma ut; eller på de gröna pilarna för angränsande kartor.


METAR-TAF: